createdAt,value
2023-03-02T00:00:47.737Z,1.41
2023-03-02T00:03:18.374Z,1.41
2023-03-02T00:05:47.254Z,1.45
2023-03-02T00:08:17.592Z,1.45
2023-03-02T00:10:44.497Z,1.46
2023-03-02T00:13:12.589Z,1.43
2023-03-02T00:15:39.382Z,1.49
2023-03-02T00:18:06.100Z,1.50
2023-03-02T00:20:34.605Z,1.53
2023-03-02T00:23:01.251Z,1.52
2023-03-02T00:25:28.807Z,1.47
2023-03-02T00:27:58.540Z,1.51
2023-03-02T00:30:25.192Z,1.53
2023-03-02T00:32:52.058Z,1.55
2023-03-02T00:35:18.731Z,1.55
2023-03-02T00:37:45.427Z,1.56
2023-03-02T00:40:12.439Z,1.58
2023-03-02T00:42:39.373Z,1.58
2023-03-02T00:45:07.100Z,1.59
2023-03-02T00:47:35.381Z,1.57
2023-03-02T00:50:02.569Z,1.60
2023-03-02T00:52:33.685Z,1.62
2023-03-02T00:55:00.251Z,1.64
2023-03-02T00:57:26.920Z,1.62
2023-03-02T00:59:53.597Z,1.62
2023-03-02T01:02:21.780Z,1.59
2023-03-02T01:04:48.835Z,1.63
2023-03-02T01:07:18.347Z,1.62
2023-03-02T01:09:45.828Z,1.60
2023-03-02T01:12:12.959Z,1.64
2023-03-02T01:14:44.848Z,1.53
2023-03-02T01:17:12.321Z,1.47
2023-03-02T01:19:40.042Z,1.57
2023-03-02T01:22:07.605Z,1.59
2023-03-02T01:24:34.150Z,1.62
2023-03-02T01:27:00.720Z,1.45
2023-03-02T01:29:27.566Z,1.53
2023-03-02T01:31:54.316Z,1.59
2023-03-02T01:34:21.267Z,1.62
2023-03-02T01:36:47.843Z,1.62
2023-03-02T01:39:17.528Z,1.52
2023-03-02T01:41:45.834Z,1.54
2023-03-02T01:44:39.388Z,1.59
2023-03-02T01:47:20.861Z,1.62
2023-03-02T01:49:59.275Z,1.62
2023-03-02T01:52:27.112Z,1.64
2023-03-02T01:54:55.893Z,1.58
2023-03-02T01:57:29.471Z,1.52
2023-03-02T02:00:08.603Z,1.47
2023-03-02T02:02:36.693Z,1.55
2023-03-02T02:05:04.114Z,1.58
2023-03-02T02:07:31.297Z,1.59
2023-03-02T02:09:58.184Z,1.52
2023-03-02T02:12:24.811Z,1.47
2023-03-02T02:14:51.768Z,1.44
2023-03-02T02:17:19.630Z,1.49
2023-03-02T02:19:58.081Z,1.58
2023-03-02T02:22:46.725Z,1.48
2023-03-02T02:25:53.231Z,1.49
2023-03-02T02:28:33.134Z,1.46
2023-03-02T02:31:26.800Z,1.49
2023-03-02T02:33:58.087Z,1.54
2023-03-02T02:36:33.396Z,1.58
2023-03-02T02:39:04.319Z,1.50
2023-03-02T02:41:36.446Z,1.52
2023-03-02T02:44:03.156Z,1.55
2023-03-02T02:46:29.861Z,1.48
2023-03-02T02:48:56.714Z,1.33
2023-03-02T02:51:26.814Z,1.40
2023-03-02T02:53:59.906Z,1.38
2023-03-02T02:56:38.355Z,1.46
2023-03-02T02:59:16.731Z,1.47
2023-03-02T03:01:44.627Z,1.25
2023-03-02T03:04:14.074Z,1.35
2023-03-02T03:06:50.663Z,1.30
2023-03-02T03:09:17.356Z,1.32
2023-03-02T03:11:50.537Z,1.44
2023-03-02T03:14:20.223Z,1.21
2023-03-02T03:16:48.488Z,1.23
2023-03-02T03:19:22.946Z,1.33
2023-03-02T03:21:52.636Z,1.40
2023-03-02T03:24:19.903Z,1.43
2023-03-02T03:26:47.128Z,1.42
2023-03-02T03:29:14.662Z,1.49
2023-03-02T03:31:41.826Z,1.51
2023-03-02T03:34:09.178Z,1.51
2023-03-02T03:36:37.395Z,1.54
2023-03-02T03:39:05.939Z,1.55
2023-03-02T03:41:33.215Z,1.56
2023-03-02T03:44:00.041Z,1.51
2023-03-02T03:46:27.981Z,1.58
2023-03-02T03:48:54.696Z,1.58
2023-03-02T03:51:21.681Z,1.51
2023-03-02T03:53:59.736Z,1.52
2023-03-02T03:56:28.163Z,1.50
2023-03-02T03:59:06.242Z,1.37
2023-03-02T04:01:39.545Z,1.50
2023-03-02T04:04:08.019Z,1.51
2023-03-02T04:06:34.949Z,1.52
2023-03-02T04:09:04.947Z,1.54
2023-03-02T04:11:34.346Z,1.56
2023-03-02T04:14:01.022Z,1.53
2023-03-02T04:16:28.375Z,1.54
2023-03-02T04:18:54.942Z,1.52
2023-03-02T04:21:21.554Z,1.48
2023-03-02T04:23:48.280Z,1.55
2023-03-02T04:26:15.126Z,1.54
2023-03-02T04:28:41.793Z,1.58
2023-03-02T04:31:08.512Z,1.58
2023-03-02T04:33:35.293Z,1.58
2023-03-02T04:36:02.087Z,1.58
2023-03-02T04:38:29.602Z,1.58
2023-03-02T04:40:57.888Z,1.59
2023-03-02T04:43:25.840Z,1.58
2023-03-02T04:45:54.152Z,1.60
2023-03-02T04:48:22.117Z,1.61
2023-03-02T04:50:48.811Z,1.56
2023-03-02T04:53:15.463Z,1.54
2023-03-02T04:55:42.539Z,1.50
2023-03-02T04:58:09.235Z,1.55
2023-03-02T05:00:36.428Z,1.55
2023-03-02T05:03:04.150Z,1.54
2023-03-02T05:05:31.813Z,1.52
2023-03-02T05:07:58.668Z,1.56
2023-03-02T05:10:27.241Z,1.56
2023-03-02T05:12:54.624Z,1.58
2023-03-02T05:15:22.931Z,1.60
2023-03-02T05:17:49.609Z,1.59
2023-03-02T05:20:16.666Z,1.61
2023-03-02T05:22:43.442Z,1.61
2023-03-02T05:25:10.351Z,1.59
2023-03-02T05:27:36.990Z,1.60
2023-03-02T05:30:07.134Z,1.59
2023-03-02T05:32:33.814Z,1.59
2023-03-02T05:35:00.591Z,1.58
2023-03-02T05:37:27.141Z,1.61
2023-03-02T05:39:53.720Z,1.60
2023-03-02T05:42:20.338Z,1.60
2023-03-02T05:44:47.054Z,1.58
2023-03-02T05:47:13.732Z,1.57
2023-03-02T05:49:40.318Z,1.61
2023-03-02T05:52:06.950Z,1.61
2023-03-02T05:54:33.510Z,1.63
2023-03-02T05:57:00.385Z,1.60
2023-03-02T05:59:26.949Z,1.60
2023-03-02T06:01:58.718Z,1.62
2023-03-02T06:04:26.364Z,1.63
2023-03-02T06:06:52.928Z,1.63
2023-03-02T06:09:19.571Z,1.63
2023-03-02T06:11:46.247Z,1.64
2023-03-02T06:14:12.816Z,1.61
2023-03-02T06:16:39.516Z,1.58
2023-03-02T06:19:06.572Z,1.57
2023-03-02T06:21:33.365Z,1.59
2023-03-02T06:24:00.079Z,1.62
2023-03-02T06:26:26.670Z,1.59
2023-03-02T06:28:54.093Z,1.62
2023-03-02T06:31:21.533Z,1.61
2023-03-02T06:33:48.190Z,1.60
2023-03-02T06:36:16.977Z,1.62
2023-03-02T06:38:43.758Z,1.58
2023-03-02T06:41:10.387Z,1.60
2023-03-02T06:43:37.121Z,1.61
2023-03-02T06:46:04.185Z,1.62
2023-03-02T06:48:30.827Z,1.65
2023-03-02T06:50:58.222Z,1.64
2023-03-02T06:53:24.926Z,1.66
2023-03-02T06:55:51.657Z,1.68
2023-03-02T06:58:18.402Z,1.67
2023-03-02T07:00:44.979Z,1.65
2023-03-02T07:03:11.720Z,1.67
2023-03-02T07:05:38.335Z,1.60
2023-03-02T07:08:05.359Z,1.57
2023-03-02T07:10:33.281Z,1.64
2023-03-02T07:13:00.114Z,1.52
2023-03-02T07:15:26.693Z,1.62
2023-03-02T07:17:53.286Z,1.62
2023-03-02T07:20:19.999Z,1.58
2023-03-02T07:22:46.601Z,1.59
2023-03-02T07:25:13.749Z,1.61
2023-03-02T07:27:40.788Z,1.63
2023-03-02T07:30:08.414Z,1.65
2023-03-02T07:32:35.315Z,1.65
2023-03-02T07:35:02.056Z,1.68
2023-03-02T07:37:28.646Z,1.58
2023-03-02T07:39:55.195Z,1.58
2023-03-02T07:42:21.855Z,1.62
2023-03-02T07:44:48.497Z,1.64
2023-03-02T07:47:15.109Z,1.68
2023-03-02T07:49:41.841Z,1.64
2023-03-02T07:52:08.441Z,1.66
2023-03-02T07:54:35.027Z,1.71
2023-03-02T07:57:01.721Z,1.73
2023-03-02T07:59:29.187Z,1.64
2023-03-02T08:01:57.026Z,1.66
2023-03-02T08:04:24.563Z,1.71
2023-03-02T08:06:51.482Z,1.73
2023-03-02T08:09:18.276Z,1.77
2023-03-02T08:11:45.077Z,1.80
2023-03-02T08:14:11.895Z,1.77
2023-03-02T08:16:39.568Z,1.80
2023-03-02T08:19:06.953Z,1.83
2023-03-02T08:21:34.036Z,1.83
2023-03-02T08:24:00.853Z,1.85
2023-03-02T08:26:27.537Z,1.87
2023-03-02T08:28:54.307Z,1.91
2023-03-02T08:31:20.997Z,1.90
2023-03-02T08:33:47.730Z,1.92
2023-03-02T08:36:17.433Z,1.94
2023-03-02T08:38:45.720Z,1.91
2023-03-02T08:41:21.148Z,1.90
2023-03-02T08:43:48.133Z,1.83
2023-03-02T08:46:17.581Z,1.88
2023-03-02T08:48:44.621Z,1.91
2023-03-02T08:51:17.108Z,1.90
2023-03-02T08:53:46.425Z,1.97
2023-03-02T08:56:35.420Z,1.88
2023-03-02T08:59:05.570Z,1.96
2023-03-02T09:01:34.914Z,2.00
2023-03-02T09:04:02.939Z,1.99
2023-03-02T09:06:31.575Z,2.01
2023-03-02T09:08:58.692Z,2.02
2023-03-02T09:11:25.727Z,2.03
2023-03-02T09:13:53.055Z,2.03
2023-03-02T09:16:20.391Z,2.05
2023-03-02T09:18:48.119Z,2.03
2023-03-02T09:21:14.900Z,2.08
2023-03-02T09:23:41.947Z,2.11
2023-03-02T09:26:08.763Z,2.12
2023-03-02T09:28:36.911Z,2.11
2023-03-02T09:31:05.901Z,2.06
2023-03-02T09:33:33.433Z,2.08
2023-03-02T09:36:01.563Z,2.10
2023-03-02T09:38:28.183Z,2.11
2023-03-02T09:41:13.339Z,2.05
2023-03-02T09:43:48.983Z,2.12
2023-03-02T09:46:20.863Z,2.15
2023-03-02T09:48:53.388Z,2.07
2023-03-02T09:51:35.136Z,2.19
2023-03-02T09:54:14.198Z,2.12
2023-03-02T09:56:48.491Z,2.17
2023-03-02T09:59:17.886Z,2.23
2023-03-02T10:01:51.231Z,2.17
2023-03-02T10:04:30.286Z,2.23
2023-03-02T10:07:13.772Z,2.22
2023-03-02T10:09:41.279Z,2.16
2023-03-02T10:12:34.662Z,2.24
2023-03-02T10:15:26.207Z,2.25
2023-03-02T10:18:02.833Z,2.22
2023-03-02T10:20:43.033Z,2.21
2023-03-02T10:23:15.632Z,2.30
2023-03-02T10:25:50.654Z,2.28
2023-03-02T10:28:17.257Z,2.34
2023-03-02T10:30:47.174Z,2.37
2023-03-02T10:33:18.030Z,2.39
2023-03-02T10:35:49.925Z,2.41
2023-03-02T10:38:22.972Z,2.36
2023-03-02T10:41:00.168Z,2.41
2023-03-02T10:43:41.618Z,2.43
2023-03-02T10:46:10.882Z,2.38
2023-03-02T10:49:22.974Z,2.50
2023-03-02T10:51:59.624Z,2.27
2023-03-02T10:54:28.216Z,2.43
2023-03-02T10:57:01.359Z,2.50
2023-03-02T10:59:47.049Z,2.56
2023-03-02T11:02:19.158Z,2.50
2023-03-02T11:04:45.874Z,2.57
2023-03-02T11:07:19.378Z,2.58
2023-03-02T11:10:07.415Z,2.57
2023-03-02T11:12:36.849Z,2.45
2023-03-02T11:15:18.618Z,2.61
2023-03-02T11:17:48.931Z,2.67
2023-03-02T11:20:25.047Z,2.68
2023-03-02T11:23:03.118Z,2.75
2023-03-02T11:25:35.601Z,2.76
2023-03-02T11:28:09.966Z,2.82
2023-03-02T11:30:43.432Z,2.73
2023-03-02T11:33:25.516Z,2.78
2023-03-02T11:35:59.922Z,2.78
2023-03-02T11:38:32.703Z,2.86
2023-03-02T11:41:17.323Z,2.87
2023-03-02T11:43:44.021Z,2.96
2023-03-02T11:46:22.327Z,2.92
2023-03-02T11:48:53.171Z,2.97
2023-03-02T11:51:24.000Z,2.92
2023-03-02T11:53:57.907Z,2.99
2023-03-02T11:56:25.781Z,3.03
2023-03-02T11:59:17.784Z,2.99
2023-03-02T12:01:48.001Z,2.97
2023-03-02T12:04:35.021Z,3.03
2023-03-02T12:07:04.750Z,3.07
2023-03-02T12:09:37.476Z,3.11
2023-03-02T12:12:19.147Z,3.17
2023-03-02T12:14:45.866Z,3.23
2023-03-02T12:17:27.530Z,3.32
2023-03-02T12:20:20.249Z,3.40
2023-03-02T12:22:46.866Z,3.38
2023-03-02T12:25:19.440Z,3.30
2023-03-02T12:27:51.119Z,3.36
2023-03-02T12:30:27.043Z,3.45
2023-03-02T12:33:02.821Z,3.44
2023-03-02T12:35:32.679Z,3.37
2023-03-02T12:38:33.951Z,3.26
2023-03-02T12:41:21.283Z,3.31
2023-03-02T12:44:24.565Z,3.57
2023-03-02T12:46:52.052Z,3.59
2023-03-02T12:49:27.390Z,3.55
2023-03-02T12:51:57.753Z,3.38
2023-03-02T12:54:30.242Z,3.64
2023-03-02T12:57:19.165Z,3.70
2023-03-02T12:59:58.363Z,3.67
2023-03-02T13:02:34.744Z,3.91
2023-03-02T13:05:08.120Z,3.86
2023-03-02T13:07:39.289Z,3.96
2023-03-02T13:10:36.146Z,3.84
2023-03-02T13:13:14.796Z,3.95
2023-03-02T13:15:52.667Z,3.91
2023-03-02T13:18:21.419Z,3.89
2023-03-02T13:20:49.848Z,4.05
2023-03-02T13:23:17.706Z,3.95
2023-03-02T13:25:48.640Z,4.02
2023-03-02T13:28:36.700Z,4.07
2023-03-02T13:31:17.592Z,4.15
2023-03-02T13:33:46.073Z,4.20
2023-03-02T13:36:23.708Z,4.27
2023-03-02T13:38:53.269Z,4.20
2023-03-02T13:41:24.191Z,4.28
2023-03-02T13:43:50.887Z,4.25
2023-03-02T13:46:17.433Z,4.28
2023-03-02T13:49:07.528Z,4.30
2023-03-02T13:51:39.998Z,4.27
2023-03-02T13:54:27.835Z,4.31
2023-03-02T13:56:56.900Z,4.33
2023-03-02T13:59:23.797Z,4.38
2023-03-02T14:01:50.719Z,4.30
2023-03-02T14:04:23.509Z,4.34
2023-03-02T14:06:51.490Z,4.81
2023-03-02T14:09:18.582Z,4.59
2023-03-02T14:11:48.936Z,4.25
2023-03-02T14:14:22.742Z,4.33
2023-03-02T14:16:49.865Z,4.27
2023-03-02T14:19:18.425Z,4.35
2023-03-02T14:21:46.565Z,4.39
2023-03-02T14:24:13.241Z,4.51
2023-03-02T14:26:46.407Z,4.56
2023-03-02T14:29:26.756Z,4.57
2023-03-02T14:31:57.816Z,4.51
2023-03-02T14:34:24.420Z,4.65
2023-03-02T14:36:53.956Z,4.58
2023-03-02T14:39:23.758Z,4.59
2023-03-02T14:41:54.164Z,4.62
2023-03-02T14:44:22.108Z,4.63
2023-03-02T14:46:49.049Z,4.59
2023-03-02T14:49:15.643Z,4.55
2023-03-02T14:51:45.152Z,4.59
2023-03-02T14:54:18.161Z,4.61
2023-03-02T14:56:45.399Z,4.56
2023-03-02T14:59:15.504Z,4.72
2023-03-02T15:01:44.578Z,4.78
2023-03-02T15:04:11.326Z,4.72
2023-03-02T15:06:40.501Z,4.72
2023-03-02T15:09:08.515Z,4.82
2023-03-02T15:11:35.562Z,4.82
2023-03-02T15:14:02.630Z,4.76
2023-03-02T15:16:29.278Z,4.72
2023-03-02T15:18:58.729Z,4.78
2023-03-02T15:21:25.640Z,4.78
2023-03-02T15:23:52.273Z,4.86
2023-03-02T15:26:19.080Z,4.82
2023-03-02T15:28:49.173Z,4.88
2023-03-02T15:31:17.178Z,4.73
2023-03-02T15:33:45.585Z,4.86
2023-03-02T15:36:13.367Z,4.84
2023-03-02T15:38:40.386Z,4.91
2023-03-02T15:41:08.509Z,4.92
2023-03-02T15:43:35.070Z,4.83
2023-03-02T15:46:02.408Z,4.92
2023-03-02T15:48:29.945Z,4.89
2023-03-02T15:51:01.962Z,4.83
2023-03-02T15:53:29.885Z,4.80
2023-03-02T15:55:57.022Z,4.78
2023-03-02T15:58:23.971Z,4.84
2023-03-02T16:00:53.146Z,4.84
2023-03-02T16:03:19.740Z,4.84
2023-03-02T16:05:46.631Z,4.85
2023-03-02T16:08:13.208Z,4.82
2023-03-02T16:10:42.817Z,4.72
2023-03-02T16:13:11.840Z,4.57
2023-03-02T16:15:40.229Z,4.62
2023-03-02T16:18:11.264Z,4.63
2023-03-02T16:20:39.144Z,4.67
2023-03-02T16:23:07.726Z,4.69
2023-03-02T16:25:43.387Z,4.71
2023-03-02T16:28:11.920Z,4.71
2023-03-02T16:30:39.113Z,4.67
2023-03-02T16:33:08.145Z,4.68
2023-03-02T16:35:36.712Z,4.65
2023-03-02T16:38:04.663Z,4.62
2023-03-02T16:40:31.951Z,4.53
2023-03-02T16:42:58.841Z,4.57
2023-03-02T16:45:26.951Z,4.55
2023-03-02T16:47:53.687Z,4.51
2023-03-02T16:50:20.520Z,4.50
2023-03-02T16:52:47.025Z,4.46
2023-03-02T16:55:17.320Z,4.38
2023-03-02T16:57:44.700Z,4.36
2023-03-02T17:00:14.921Z,4.39
2023-03-02T17:02:41.830Z,4.37
2023-03-02T17:05:09.144Z,4.34
2023-03-02T17:07:35.962Z,4.33
2023-03-02T17:10:04.384Z,4.14
2023-03-02T17:12:30.943Z,4.22
2023-03-02T17:14:57.536Z,4.21
2023-03-02T17:17:24.098Z,4.19
2023-03-02T17:19:50.737Z,4.19
2023-03-02T17:22:17.401Z,4.16
2023-03-02T17:24:43.963Z,4.14
2023-03-02T17:27:22.763Z,5.05
2023-03-02T17:29:52.046Z,4.46
2023-03-02T17:32:19.181Z,4.28
2023-03-02T17:34:46.236Z,4.11
2023-03-02T17:37:12.849Z,4.06
2023-03-02T17:39:39.488Z,4.03
2023-03-02T17:42:06.783Z,3.97
2023-03-02T17:44:34.613Z,3.91
2023-03-02T17:47:05.415Z,3.90
2023-03-02T17:49:32.150Z,3.86
2023-03-02T17:51:58.771Z,3.85
2023-03-02T17:54:25.393Z,3.77
2023-03-02T17:56:52.007Z,3.76
2023-03-02T17:59:18.654Z,3.72
2023-03-02T18:01:45.223Z,3.70
2023-03-02T18:04:11.973Z,3.61
2023-03-02T18:06:38.718Z,3.42
2023-03-02T18:09:05.772Z,3.51
2023-03-02T18:11:32.624Z,3.51
2023-03-02T18:13:59.331Z,3.36
2023-03-02T18:16:28.424Z,3.42
2023-03-02T18:18:56.330Z,3.41
2023-03-02T18:21:23.091Z,3.30
2023-03-02T18:23:49.784Z,3.29
2023-03-02T18:26:16.663Z,3.29
2023-03-02T18:28:43.556Z,3.29
2023-03-02T18:31:12.710Z,3.29
2023-03-02T18:33:39.389Z,3.27
2023-03-02T18:36:06.351Z,3.25
2023-03-02T18:38:33.994Z,3.22
2023-03-02T18:41:03.530Z,3.17
2023-03-02T18:43:34.812Z,3.17
2023-03-02T18:46:04.258Z,3.11
2023-03-02T18:48:32.055Z,3.13
2023-03-02T18:50:59.065Z,3.09
2023-03-02T18:53:26.944Z,3.08
2023-03-02T18:55:56.725Z,3.05
2023-03-02T18:58:24.840Z,3.03
2023-03-02T19:00:53.421Z,2.99
2023-03-02T19:03:20.507Z,2.99
2023-03-02T19:05:47.133Z,2.90
2023-03-02T19:08:13.825Z,2.83
2023-03-02T19:10:42.296Z,2.82
2023-03-02T19:13:11.704Z,2.81
2023-03-02T19:15:42.269Z,2.84
2023-03-02T19:18:13.225Z,2.80
2023-03-02T19:20:39.895Z,2.79
2023-03-02T19:23:06.473Z,2.79
2023-03-02T19:25:33.087Z,2.80
2023-03-02T19:27:59.807Z,2.79
2023-03-02T19:30:27.349Z,2.78
2023-03-02T19:32:54.427Z,2.77
2023-03-02T19:35:24.249Z,2.75
2023-03-02T19:37:50.905Z,2.73
2023-03-02T19:40:19.655Z,2.71
2023-03-02T19:42:47.498Z,2.69
2023-03-02T19:45:23.676Z,2.62
2023-03-02T19:47:50.473Z,2.58
2023-03-02T19:50:19.395Z,2.60
2023-03-02T19:52:46.497Z,2.58
2023-03-02T19:55:14.752Z,2.58
2023-03-02T19:57:43.267Z,2.56
2023-03-02T20:00:15.269Z,2.51
2023-03-02T20:02:42.049Z,2.52
2023-03-02T20:05:10.506Z,2.51
2023-03-02T20:07:40.476Z,2.50
2023-03-02T20:10:10.180Z,2.47
2023-03-02T20:12:37.281Z,2.41
2023-03-02T20:15:06.465Z,2.39
2023-03-02T20:17:33.880Z,2.38
2023-03-02T20:20:01.411Z,2.38
2023-03-02T20:22:28.333Z,2.29
2023-03-02T20:24:55.171Z,2.32
2023-03-02T20:27:22.356Z,2.25
2023-03-02T20:29:49.484Z,2.30
2023-03-02T20:32:16.409Z,2.31
2023-03-02T20:34:43.660Z,2.16
2023-03-02T20:37:13.610Z,2.07
2023-03-02T20:39:42.468Z,2.21
2023-03-02T20:42:10.131Z,2.22
2023-03-02T20:44:37.409Z,2.23
2023-03-02T20:47:08.714Z,2.23
2023-03-02T20:49:37.357Z,2.24
2023-03-02T20:52:06.129Z,2.21
2023-03-02T20:54:37.510Z,2.19
2023-03-02T20:57:05.711Z,2.17
2023-03-02T20:59:32.461Z,2.18
2023-03-02T21:01:59.284Z,2.12
2023-03-02T21:04:26.386Z,2.16
2023-03-02T21:06:53.207Z,2.16
2023-03-02T21:09:20.207Z,2.07
2023-03-02T21:11:47.072Z,2.02
2023-03-02T21:14:14.295Z,2.08
2023-03-02T21:16:43.706Z,1.71
2023-03-02T21:19:15.150Z,1.94
2023-03-02T21:21:42.899Z,2.01
2023-03-02T21:24:12.571Z,1.86
2023-03-02T21:26:41.685Z,1.96
2023-03-02T21:29:09.764Z,2.01
2023-03-02T21:31:36.543Z,2.01
2023-03-02T21:34:03.672Z,1.95
2023-03-02T21:36:30.584Z,1.85
2023-03-02T21:38:57.622Z,1.96
2023-03-02T21:41:24.703Z,1.99
2023-03-02T21:43:51.534Z,2.02
2023-03-02T21:46:21.929Z,2.03
2023-03-02T21:48:50.444Z,2.03
2023-03-02T21:51:17.627Z,2.03
2023-03-02T21:53:44.264Z,2.05
2023-03-02T21:56:20.684Z,2.05
2023-03-02T21:58:52.942Z,2.05
2023-03-02T22:01:20.887Z,2.03
2023-03-02T22:03:47.708Z,1.91
2023-03-02T22:06:26.200Z,1.99
2023-03-02T22:08:53.617Z,2.00
2023-03-02T22:11:24.247Z,1.99
2023-03-02T22:13:53.195Z,1.95
2023-03-02T22:16:23.104Z,1.97
2023-03-02T22:18:54.774Z,2.00
2023-03-02T22:21:27.485Z,2.00
2023-03-02T22:23:58.396Z,1.98
2023-03-02T22:26:24.978Z,1.88
2023-03-02T22:28:51.933Z,1.92
2023-03-02T22:31:22.580Z,1.96
2023-03-02T22:33:49.925Z,1.98
2023-03-02T22:36:27.937Z,1.77
2023-03-02T22:38:56.929Z,1.87
2023-03-02T22:41:23.738Z,1.91
2023-03-02T22:43:52.946Z,1.97
2023-03-02T22:46:21.872Z,1.95
2023-03-02T22:48:52.880Z,1.97
2023-03-02T22:51:27.888Z,1.96
2023-03-02T22:53:58.078Z,1.99
2023-03-02T22:56:43.784Z,2.02
2023-03-02T22:59:26.434Z,2.02
2023-03-02T23:02:25.692Z,2.03
2023-03-02T23:04:52.346Z,2.03
2023-03-02T23:07:20.974Z,2.03
2023-03-02T23:09:49.031Z,2.02
2023-03-02T23:12:33.463Z,2.04
2023-03-02T23:15:00.137Z,2.04
2023-03-02T23:17:38.819Z,2.05
2023-03-02T23:20:09.367Z,2.08
2023-03-02T23:22:36.701Z,2.08
2023-03-02T23:25:03.662Z,2.07
2023-03-02T23:27:30.385Z,2.10
2023-03-02T23:29:57.010Z,2.11
2023-03-02T23:32:23.781Z,2.09
2023-03-02T23:34:50.437Z,2.11
2023-03-02T23:37:16.993Z,2.12
2023-03-02T23:39:46.008Z,2.12
2023-03-02T23:42:13.000Z,2.13
2023-03-02T23:44:39.537Z,2.14
2023-03-02T23:47:06.108Z,2.15
2023-03-02T23:49:32.678Z,2.16
2023-03-02T23:51:59.411Z,2.17
2023-03-02T23:54:25.966Z,2.15
2023-03-02T23:56:52.542Z,2.18
2023-03-02T23:59:19.284Z,2.17
